sensor_id;sensor_type;location;lat;lon;timestamp;temperature;humidity
12111;DHT22;6119;52.372;8.990;2023-04-09T00:01:55;7.90;99.90
12111;DHT22;6119;52.372;8.990;2023-04-09T00:04:44;7.80;99.90
12111;DHT22;6119;52.372;8.990;2023-04-09T00:07:30;7.80;99.90
12111;DHT22;6119;52.372;8.990;2023-04-09T00:10:17;7.80;99.90
12111;DHT22;6119;52.372;8.990;2023-04-09T00:13:04;7.70;99.90
12111;DHT22;6119;52.372;8.990;2023-04-09T00:15:50;7.70;99.90
12111;DHT22;6119;52.372;8.990;2023-04-09T00:18:37;7.60;99.90
12111;DHT22;6119;52.372;8.990;2023-04-09T00:21:24;7.60;99.90
12111;DHT22;6119;52.372;8.990;2023-04-09T00:24:12;7.60;99.90
12111;DHT22;6119;52.372;8.990;2023-04-09T00:26:58;7.50;99.90
12111;DHT22;6119;52.372;8.990;2023-04-09T00:29:45;7.50;99.90
12111;DHT22;6119;52.372;8.990;2023-04-09T00:32:32;7.50;99.90
12111;DHT22;6119;52.372;8.990;2023-04-09T00:35:18;7.40;99.90
12111;DHT22;6119;52.372;8.990;2023-04-09T00:38:06;7.40;99.90
12111;DHT22;6119;52.372;8.990;2023-04-09T00:40:53;7.30;99.90
12111;DHT22;6119;52.372;8.990;2023-04-09T00:43:39;7.30;99.90
12111;DHT22;6119;52.372;8.990;2023-04-09T00:46:26;7.20;99.90
12111;DHT22;6119;52.372;8.990;2023-04-09T00:49:13;7.20;99.90
12111;DHT22;6119;52.372;8.990;2023-04-09T00:52:00;7.10;99.90
12111;DHT22;6119;52.372;8.990;2023-04-09T00:54:48;7.10;99.90
12111;DHT22;6119;52.372;8.990;2023-04-09T00:57:34;7.10;99.90
12111;DHT22;6119;52.372;8.990;2023-04-09T01:00:21;7.00;99.90
12111;DHT22;6119;52.372;8.990;2023-04-09T01:03:08;7.00;99.90
12111;DHT22;6119;52.372;8.990;2023-04-09T01:06:02;6.90;99.90
12111;DHT22;6119;52.372;8.990;2023-04-09T01:08:57;6.90;99.90
12111;DHT22;6119;52.372;8.990;2023-04-09T01:11:53;6.80;99.90
12111;DHT22;6119;52.372;8.990;2023-04-09T01:14:47;6.80;99.90
12111;DHT22;6119;52.372;8.990;2023-04-09T01:17:43;6.70;99.90
12111;DHT22;6119;52.372;8.990;2023-04-09T01:20:34;6.70;99.90
12111;DHT22;6119;52.372;8.990;2023-04-09T01:23:32;6.70;99.90
12111;DHT22;6119;52.372;8.990;2023-04-09T01:26:28;6.70;99.90
12111;DHT22;6119;52.372;8.990;2023-04-09T01:29:22;6.60;99.90
12111;DHT22;6119;52.372;8.990;2023-04-09T01:32:10;6.60;99.90
12111;DHT22;6119;52.372;8.990;2023-04-09T01:34:57;6.50;99.90
12111;DHT22;6119;52.372;8.990;2023-04-09T01:37:45;6.50;99.90
12111;DHT22;6119;52.372;8.990;2023-04-09T01:40:32;6.40;99.90
12111;DHT22;6119;52.372;8.990;2023-04-09T01:43:19;6.40;99.90
12111;DHT22;6119;52.372;8.990;2023-04-09T01:46:08;6.40;99.90
12111;DHT22;6119;52.372;8.990;2023-04-09T01:48:55;6.30;99.90
12111;DHT22;6119;52.372;8.990;2023-04-09T01:51:42;6.30;99.90
12111;DHT22;6119;52.372;8.990;2023-04-09T01:54:29;6.30;99.90
12111;DHT22;6119;52.372;8.990;2023-04-09T01:57:15;6.20;99.90
12111;DHT22;6119;52.372;8.990;2023-04-09T02:00:02;6.20;99.90
12111;DHT22;6119;52.372;8.990;2023-04-09T02:02:56;6.10;99.90
12111;DHT22;6119;52.372;8.990;2023-04-09T02:05:49;6.10;99.90
12111;DHT22;6119;52.372;8.990;2023-04-09T02:08:37;6.00;99.90
12111;DHT22;6119;52.372;8.990;2023-04-09T02:11:25;6.10;99.90
12111;DHT22;6119;52.372;8.990;2023-04-09T02:14:15;6.00;99.90
12111;DHT22;6119;52.372;8.990;2023-04-09T02:17:02;6.00;99.90
12111;DHT22;6119;52.372;8.990;2023-04-09T02:19:50;6.10;99.90
12111;DHT22;6119;52.372;8.990;2023-04-09T02:22:38;6.10;99.90
12111;DHT22;6119;52.372;8.990;2023-04-09T02:25:25;6.00;99.90
12111;DHT22;6119;52.372;8.990;2023-04-09T02:28:12;6.00;99.90
12111;DHT22;6119;52.372;8.990;2023-04-09T02:30:58;6.00;99.90
12111;DHT22;6119;52.372;8.990;2023-04-09T02:33:45;6.00;99.90
12111;DHT22;6119;52.372;8.990;2023-04-09T02:36:33;6.00;99.90
12111;DHT22;6119;52.372;8.990;2023-04-09T02:39:20;5.90;99.90
12111;DHT22;6119;52.372;8.990;2023-04-09T02:42:06;5.90;99.90
12111;DHT22;6119;52.372;8.990;2023-04-09T02:44:52;6.00;99.90
12111;DHT22;6119;52.372;8.990;2023-04-09T02:47:39;6.00;99.90
12111;DHT22;6119;52.372;8.990;2023-04-09T02:50:26;6.00;99.90
12111;DHT22;6119;52.372;8.990;2023-04-09T02:53:15;5.90;99.90
12111;DHT22;6119;52.372;8.990;2023-04-09T02:56:02;5.90;99.90
12111;DHT22;6119;52.372;8.990;2023-04-09T02:58:48;5.90;99.90
12111;DHT22;6119;52.372;8.990;2023-04-09T03:01:38;6.00;99.90
12111;DHT22;6119;52.372;8.990;2023-04-09T03:04:25;6.10;99.90
12111;DHT22;6119;52.372;8.990;2023-04-09T03:07:12;6.00;99.90
12111;DHT22;6119;52.372;8.990;2023-04-09T03:09:59;6.10;99.90
12111;DHT22;6119;52.372;8.990;2023-04-09T03:12:46;6.10;99.90
12111;DHT22;6119;52.372;8.990;2023-04-09T03:15:32;6.10;99.90
12111;DHT22;6119;52.372;8.990;2023-04-09T03:18:19;6.10;99.90
12111;DHT22;6119;52.372;8.990;2023-04-09T03:21:06;6.20;99.90
12111;DHT22;6119;52.372;8.990;2023-04-09T03:23:53;6.20;99.90
12111;DHT22;6119;52.372;8.990;2023-04-09T03:26:41;6.20;99.90
12111;DHT22;6119;52.372;8.990;2023-04-09T03:29:27;6.20;99.90
12111;DHT22;6119;52.372;8.990;2023-04-09T03:32:14;6.20;99.90
12111;DHT22;6119;52.372;8.990;2023-04-09T03:35:03;6.20;99.90
12111;DHT22;6119;52.372;8.990;2023-04-09T03:37:51;6.20;99.90
12111;DHT22;6119;52.372;8.990;2023-04-09T03:40:37;6.10;99.90
12111;DHT22;6119;52.372;8.990;2023-04-09T03:43:25;6.20;99.90
12111;DHT22;6119;52.372;8.990;2023-04-09T03:46:12;6.20;99.90
12111;DHT22;6119;52.372;8.990;2023-04-09T03:48:59;6.20;99.90
12111;DHT22;6119;52.372;8.990;2023-04-09T03:51:45;6.30;99.90
12111;DHT22;6119;52.372;8.990;2023-04-09T03:54:32;6.20;99.90
12111;DHT22;6119;52.372;8.990;2023-04-09T03:57:18;6.20;99.90
12111;DHT22;6119;52.372;8.990;2023-04-09T04:00:07;6.10;99.90
12111;DHT22;6119;52.372;8.990;2023-04-09T04:02:54;6.20;99.90
12111;DHT22;6119;52.372;8.990;2023-04-09T04:05:40;6.10;99.90
12111;DHT22;6119;52.372;8.990;2023-04-09T04:08:27;6.10;99.90
12111;DHT22;6119;52.372;8.990;2023-04-09T04:11:14;6.10;99.90
12111;DHT22;6119;52.372;8.990;2023-04-09T04:14:00;6.10;99.90
12111;DHT22;6119;52.372;8.990;2023-04-09T04:16:48;6.20;99.90
12111;DHT22;6119;52.372;8.990;2023-04-09T04:19:34;6.20;99.90
12111;DHT22;6119;52.372;8.990;2023-04-09T04:22:21;6.20;99.90
12111;DHT22;6119;52.372;8.990;2023-04-09T04:25:10;6.20;99.90
12111;DHT22;6119;52.372;8.990;2023-04-09T04:27:57;6.20;99.90
12111;DHT22;6119;52.372;8.990;2023-04-09T04:30:43;6.00;99.90
12111;DHT22;6119;52.372;8.990;2023-04-09T04:33:31;6.20;99.90
12111;DHT22;6119;52.372;8.990;2023-04-09T04:36:18;6.20;99.90
12111;DHT22;6119;52.372;8.990;2023-04-09T04:39:05;6.20;99.90
12111;DHT22;6119;52.372;8.990;2023-04-09T04:41:51;6.20;99.90
12111;DHT22;6119;52.372;8.990;2023-04-09T04:44:38;6.20;99.90
12111;DHT22;6119;52.372;8.990;2023-04-09T04:47:24;6.20;99.90
12111;DHT22;6119;52.372;8.990;2023-04-09T04:50:13;6.20;99.90
12111;DHT22;6119;52.372;8.990;2023-04-09T04:52:59;6.10;99.90
12111;DHT22;6119;52.372;8.990;2023-04-09T04:55:46;6.10;99.90
12111;DHT22;6119;52.372;8.990;2023-04-09T04:58:32;6.00;99.90
12111;DHT22;6119;52.372;8.990;2023-04-09T05:01:19;6.10;99.90
12111;DHT22;6119;52.372;8.990;2023-04-09T05:04:06;6.10;99.90
12111;DHT22;6119;52.372;8.990;2023-04-09T05:06:53;6.00;99.90
12111;DHT22;6119;52.372;8.990;2023-04-09T05:09:40;6.00;99.90
12111;DHT22;6119;52.372;8.990;2023-04-09T05:12:30;6.10;99.90
12111;DHT22;6119;52.372;8.990;2023-04-09T05:15:17;6.10;99.90
12111;DHT22;6119;52.372;8.990;2023-04-09T05:18:04;6.10;99.90
12111;DHT22;6119;52.372;8.990;2023-04-09T05:20:50;6.00;99.90
12111;DHT22;6119;52.372;8.990;2023-04-09T05:23:38;6.00;99.90
12111;DHT22;6119;52.372;8.990;2023-04-09T05:26:25;6.00;99.90
12111;DHT22;6119;52.372;8.990;2023-04-09T05:29:11;6.00;99.90
12111;DHT22;6119;52.372;8.990;2023-04-09T05:31:58;6.00;99.90
12111;DHT22;6119;52.372;8.990;2023-04-09T05:34:45;6.00;99.90
12111;DHT22;6119;52.372;8.990;2023-04-09T05:37:31;6.00;99.90
12111;DHT22;6119;52.372;8.990;2023-04-09T05:40:19;6.10;99.90
12111;DHT22;6119;52.372;8.990;2023-04-09T05:43:05;6.00;99.90
12111;DHT22;6119;52.372;8.990;2023-04-09T05:45:52;6.00;99.90
12111;DHT22;6119;52.372;8.990;2023-04-09T05:48:38;6.10;99.90
12111;DHT22;6119;52.372;8.990;2023-04-09T05:51:25;6.10;99.90
12111;DHT22;6119;52.372;8.990;2023-04-09T05:54:12;6.10;99.90
12111;DHT22;6119;52.372;8.990;2023-04-09T05:57:00;6.10;99.90
12111;DHT22;6119;52.372;8.990;2023-04-09T05:59:46;6.10;99.90
12111;DHT22;6119;52.372;8.990;2023-04-09T06:02:32;6.10;99.90
12111;DHT22;6119;52.372;8.990;2023-04-09T06:05:19;6.20;99.90
12111;DHT22;6119;52.372;8.990;2023-04-09T06:08:06;6.20;99.90
12111;DHT22;6119;52.372;8.990;2023-04-09T06:10:52;6.10;99.90
12111;DHT22;6119;52.372;8.990;2023-04-09T06:13:40;6.10;99.90
12111;DHT22;6119;52.372;8.990;2023-04-09T06:16:27;6.20;99.90
12111;DHT22;6119;52.372;8.990;2023-04-09T06:19:15;6.20;99.90
12111;DHT22;6119;52.372;8.990;2023-04-09T06:22:02;6.30;99.90
12111;DHT22;6119;52.372;8.990;2023-04-09T06:24:48;6.20;99.90
12111;DHT22;6119;52.372;8.990;2023-04-09T06:27:35;6.20;99.90
12111;DHT22;6119;52.372;8.990;2023-04-09T06:30:22;6.20;99.90
12111;DHT22;6119;52.372;8.990;2023-04-09T06:33:10;6.30;99.90
12111;DHT22;6119;52.372;8.990;2023-04-09T06:35:56;6.30;99.90
12111;DHT22;6119;52.372;8.990;2023-04-09T06:38:43;6.40;99.90
12111;DHT22;6119;52.372;8.990;2023-04-09T06:41:30;6.40;99.90
12111;DHT22;6119;52.372;8.990;2023-04-09T06:44:16;6.30;99.90
12111;DHT22;6119;52.372;8.990;2023-04-09T06:47:05;6.40;99.90
12111;DHT22;6119;52.372;8.990;2023-04-09T06:49:53;6.40;99.90
12111;DHT22;6119;52.372;8.990;2023-04-09T06:52:39;6.40;99.90
12111;DHT22;6119;52.372;8.990;2023-04-09T06:55:25;6.50;99.90
12111;DHT22;6119;52.372;8.990;2023-04-09T06:58:12;6.50;99.90
12111;DHT22;6119;52.372;8.990;2023-04-09T07:00:59;6.60;99.90
12111;DHT22;6119;52.372;8.990;2023-04-09T07:03:46;6.60;99.90
12111;DHT22;6119;52.372;8.990;2023-04-09T07:06:33;6.50;99.90
12111;DHT22;6119;52.372;8.990;2023-04-09T07:09:20;6.50;99.90
12111;DHT22;6119;52.372;8.990;2023-04-09T07:12:06;6.50;99.90
12111;DHT22;6119;52.372;8.990;2023-04-09T07:14:56;6.50;99.90
12111;DHT22;6119;52.372;8.990;2023-04-09T07:17:43;6.50;99.90
12111;DHT22;6119;52.372;8.990;2023-04-09T07:20:31;6.70;99.90
12111;DHT22;6119;52.372;8.990;2023-04-09T07:23:18;6.60;99.90
12111;DHT22;6119;52.372;8.990;2023-04-09T07:26:05;6.70;99.90
12111;DHT22;6119;52.372;8.990;2023-04-09T07:28:52;6.70;99.90
12111;DHT22;6119;52.372;8.990;2023-04-09T07:31:38;6.80;99.90
12111;DHT22;6119;52.372;8.990;2023-04-09T07:34:25;6.80;99.90
12111;DHT22;6119;52.372;8.990;2023-04-09T07:37:14;6.90;99.90
12111;DHT22;6119;52.372;8.990;2023-04-09T07:40:01;6.90;99.90
12111;DHT22;6119;52.372;8.990;2023-04-09T07:42:48;6.90;99.90
12111;DHT22;6119;52.372;8.990;2023-04-09T07:45:34;7.00;99.90
12111;DHT22;6119;52.372;8.990;2023-04-09T07:48:21;7.10;99.90
12111;DHT22;6119;52.372;8.990;2023-04-09T07:51:07;7.20;99.90
12111;DHT22;6119;52.372;8.990;2023-04-09T07:53:55;7.20;99.90
12111;DHT22;6119;52.372;8.990;2023-04-09T07:56:41;7.10;99.90
12111;DHT22;6119;52.372;8.990;2023-04-09T07:59:28;7.30;99.90
12111;DHT22;6119;52.372;8.990;2023-04-09T08:02:16;7.30;99.90
12111;DHT22;6119;52.372;8.990;2023-04-09T08:05:03;7.40;99.90
12111;DHT22;6119;52.372;8.990;2023-04-09T08:07:50;7.40;99.90
12111;DHT22;6119;52.372;8.990;2023-04-09T08:10:39;7.50;99.90
12111;DHT22;6119;52.372;8.990;2023-04-09T08:13:25;7.50;99.90
12111;DHT22;6119;52.372;8.990;2023-04-09T08:16:11;7.50;99.90
12111;DHT22;6119;52.372;8.990;2023-04-09T08:18:58;8.00;99.90
12111;DHT22;6119;52.372;8.990;2023-04-09T08:21:45;7.60;99.90
12111;DHT22;6119;52.372;8.990;2023-04-09T08:24:33;7.60;99.90
12111;DHT22;6119;52.372;8.990;2023-04-09T08:27:21;7.70;99.90
12111;DHT22;6119;52.372;8.990;2023-04-09T08:30:08;7.70;99.90
12111;DHT22;6119;52.372;8.990;2023-04-09T08:32:55;7.80;99.90
12111;DHT22;6119;52.372;8.990;2023-04-09T08:35:42;7.90;99.90
12111;DHT22;6119;52.372;8.990;2023-04-09T08:38:29;7.90;99.90
12111;DHT22;6119;52.372;8.990;2023-04-09T08:41:19;7.90;99.90
12111;DHT22;6119;52.372;8.990;2023-04-09T08:44:09;8.00;99.90
12111;DHT22;6119;52.372;8.990;2023-04-09T08:46:55;8.00;99.90
12111;DHT22;6119;52.372;8.990;2023-04-09T08:49:43;8.10;99.90
12111;DHT22;6119;52.372;8.990;2023-04-09T08:52:33;8.20;99.90
12111;DHT22;6119;52.372;8.990;2023-04-09T08:55:21;8.20;99.90
12111;DHT22;6119;52.372;8.990;2023-04-09T08:58:07;8.30;99.90
12111;DHT22;6119;52.372;8.990;2023-04-09T09:00:56;8.40;99.90
12111;DHT22;6119;52.372;8.990;2023-04-09T09:03:52;8.40;99.90
12111;DHT22;6119;52.372;8.990;2023-04-09T09:06:40;8.60;99.90
12111;DHT22;6119;52.372;8.990;2023-04-09T09:09:27;8.50;99.90
12111;DHT22;6119;52.372;8.990;2023-04-09T09:12:31;8.60;99.90
12111;DHT22;6119;52.372;8.990;2023-04-09T09:15:26;8.80;99.90
12111;DHT22;6119;52.372;8.990;2023-04-09T09:18:15;9.00;99.90
12111;DHT22;6119;52.372;8.990;2023-04-09T09:21:09;9.30;99.90
12111;DHT22;6119;52.372;8.990;2023-04-09T09:23:56;9.60;99.90
12111;DHT22;6119;52.372;8.990;2023-04-09T09:26:42;9.60;99.90
12111;DHT22;6119;52.372;8.990;2023-04-09T09:29:29;9.90;99.90
12111;DHT22;6119;52.372;8.990;2023-04-09T09:32:16;10.00;99.90
12111;DHT22;6119;52.372;8.990;2023-04-09T09:35:06;10.10;99.90
12111;DHT22;6119;52.372;8.990;2023-04-09T09:38:00;10.10;99.90
12111;DHT22;6119;52.372;8.990;2023-04-09T09:40:48;10.30;99.90
12111;DHT22;6119;52.372;8.990;2023-04-09T09:43:39;10.60;99.90
12111;DHT22;6119;52.372;8.990;2023-04-09T09:46:27;10.70;99.90
12111;DHT22;6119;52.372;8.990;2023-04-09T09:49:16;10.90;99.90
12111;DHT22;6119;52.372;8.990;2023-04-09T09:52:06;11.00;99.90
12111;DHT22;6119;52.372;8.990;2023-04-09T09:54:54;11.10;99.90
12111;DHT22;6119;52.372;8.990;2023-04-09T09:57:43;11.20;99.90
12111;DHT22;6119;52.372;8.990;2023-04-09T10:00:32;11.30;99.90
12111;DHT22;6119;52.372;8.990;2023-04-09T10:03:20;11.50;99.90
12111;DHT22;6119;52.372;8.990;2023-04-09T10:06:08;11.60;99.90
12111;DHT22;6119;52.372;8.990;2023-04-09T10:08:59;11.80;99.90
12111;DHT22;6119;52.372;8.990;2023-04-09T10:11:49;12.10;99.90
12111;DHT22;6119;52.372;8.990;2023-04-09T10:14:35;12.20;99.90
12111;DHT22;6119;52.372;8.990;2023-04-09T10:17:22;12.30;99.90
12111;DHT22;6119;52.372;8.990;2023-04-09T10:20:11;12.30;99.90
12111;DHT22;6119;52.372;8.990;2023-04-09T10:23:04;12.40;99.90
12111;DHT22;6119;52.372;8.990;2023-04-09T10:25:52;12.40;99.90
12111;DHT22;6119;52.372;8.990;2023-04-09T10:28:39;12.60;99.90
12111;DHT22;6119;52.372;8.990;2023-04-09T10:31:26;12.90;99.90
12111;DHT22;6119;52.372;8.990;2023-04-09T10:34:15;13.10;99.90
12111;DHT22;6119;52.372;8.990;2023-04-09T10:37:01;13.30;99.90
12111;DHT22;6119;52.372;8.990;2023-04-09T10:39:49;13.50;99.90
12111;DHT22;6119;52.372;8.990;2023-04-09T10:42:39;13.50;99.90
12111;DHT22;6119;52.372;8.990;2023-04-09T10:45:38;13.40;99.90
12111;DHT22;6119;52.372;8.990;2023-04-09T10:48:24;13.80;99.90
12111;DHT22;6119;52.372;8.990;2023-04-09T10:51:17;13.70;99.90
12111;DHT22;6119;52.372;8.990;2023-04-09T10:54:04;13.90;99.90
12111;DHT22;6119;52.372;8.990;2023-04-09T10:57:09;14.00;99.90
12111;DHT22;6119;52.372;8.990;2023-04-09T10:59:59;14.10;99.90
12111;DHT22;6119;52.372;8.990;2023-04-09T11:03:07;14.40;99.90
12111;DHT22;6119;52.372;8.990;2023-04-09T11:05:59;14.60;99.90
12111;DHT22;6119;52.372;8.990;2023-04-09T11:08:47;14.60;99.90
12111;DHT22;6119;52.372;8.990;2023-04-09T11:11:33;14.80;99.90
12111;DHT22;6119;52.372;8.990;2023-04-09T11:14:21;14.90;99.90
12111;DHT22;6119;52.372;8.990;2023-04-09T11:17:09;14.80;99.90
12111;DHT22;6119;52.372;8.990;2023-04-09T11:19:56;14.90;99.90
12111;DHT22;6119;52.372;8.990;2023-04-09T11:22:43;15.20;99.90
12111;DHT22;6119;52.372;8.990;2023-04-09T11:25:31;15.30;99.90
12111;DHT22;6119;52.372;8.990;2023-04-09T11:28:19;15.30;99.90
12111;DHT22;6119;52.372;8.990;2023-04-09T11:31:05;15.50;99.90
12111;DHT22;6119;52.372;8.990;2023-04-09T11:33:54;15.40;99.90
12111;DHT22;6119;52.372;8.990;2023-04-09T11:36:40;15.30;99.90
12111;DHT22;6119;52.372;8.990;2023-04-09T11:39:27;15.60;99.90
12111;DHT22;6119;52.372;8.990;2023-04-09T11:42:14;15.60;99.90
12111;DHT22;6119;52.372;8.990;2023-04-09T11:45:01;15.70;99.90
12111;DHT22;6119;52.372;8.990;2023-04-09T11:47:48;15.70;99.90
12111;DHT22;6119;52.372;8.990;2023-04-09T11:50:37;16.10;99.90
12111;DHT22;6119;52.372;8.990;2023-04-09T11:53:29;16.10;99.90
12111;DHT22;6119;52.372;8.990;2023-04-09T11:56:16;16.00;99.90
12111;DHT22;6119;52.372;8.990;2023-04-09T11:59:02;16.20;99.90
12111;DHT22;6119;52.372;8.990;2023-04-09T12:01:49;16.10;99.90
12111;DHT22;6119;52.372;8.990;2023-04-09T12:04:36;15.90;99.90
12111;DHT22;6119;52.372;8.990;2023-04-09T12:07:31;15.50;99.90
12111;DHT22;6119;52.372;8.990;2023-04-09T12:10:18;15.30;99.90
12111;DHT22;6119;52.372;8.990;2023-04-09T12:13:05;15.20;99.90
12111;DHT22;6119;52.372;8.990;2023-04-09T12:15:53;15.00;99.90
12111;DHT22;6119;52.372;8.990;2023-04-09T12:18:43;14.80;99.90
12111;DHT22;6119;52.372;8.990;2023-04-09T12:21:44;14.70;99.90
12111;DHT22;6119;52.372;8.990;2023-04-09T12:24:33;15.00;99.90
12111;DHT22;6119;52.372;8.990;2023-04-09T12:27:19;15.30;99.90
12111;DHT22;6119;52.372;8.990;2023-04-09T12:30:07;15.50;99.90
12111;DHT22;6119;52.372;8.990;2023-04-09T12:32:55;15.30;99.90
12111;DHT22;6119;52.372;8.990;2023-04-09T12:35:42;15.20;99.90
12111;DHT22;6119;52.372;8.990;2023-04-09T12:38:28;15.10;99.90
12111;DHT22;6119;52.372;8.990;2023-04-09T12:41:16;15.10;98.80
12111;DHT22;6119;52.372;8.990;2023-04-09T12:44:03;15.40;99.00
12111;DHT22;6119;52.372;8.990;2023-04-09T12:46:51;15.70;97.80
12111;DHT22;6119;52.372;8.990;2023-04-09T12:49:38;15.70;97.60
12111;DHT22;6119;52.372;8.990;2023-04-09T12:52:26;16.00;97.20
12111;DHT22;6119;52.372;8.990;2023-04-09T12:55:13;16.50;98.60
12111;DHT22;6119;52.372;8.990;2023-04-09T12:58:01;16.20;96.10
12111;DHT22;6119;52.372;8.990;2023-04-09T13:00:48;16.10;97.30
12111;DHT22;6119;52.372;8.990;2023-04-09T13:03:35;15.90;97.00
12111;DHT22;6119;52.372;8.990;2023-04-09T13:06:22;15.80;97.30
12111;DHT22;6119;52.372;8.990;2023-04-09T13:09:08;16.00;96.70
12111;DHT22;6119;52.372;8.990;2023-04-09T13:11:54;16.00;97.00
12111;DHT22;6119;52.372;8.990;2023-04-09T13:14:43;15.80;97.50
12111;DHT22;6119;52.372;8.990;2023-04-09T13:17:31;15.70;97.60
12111;DHT22;6119;52.372;8.990;2023-04-09T13:20:18;15.60;97.30
12111;DHT22;6119;52.372;8.990;2023-04-09T13:23:05;15.50;99.20
12111;DHT22;6119;52.372;8.990;2023-04-09T13:25:51;15.50;99.90
12111;DHT22;6119;52.372;8.990;2023-04-09T13:28:38;15.40;99.90
12111;DHT22;6119;52.372;8.990;2023-04-09T13:31:26;15.30;99.90
12111;DHT22;6119;52.372;8.990;2023-04-09T13:34:12;15.20;99.90
12111;DHT22;6119;52.372;8.990;2023-04-09T13:36:59;15.10;99.90
12111;DHT22;6119;52.372;8.990;2023-04-09T13:39:45;15.00;99.90
12111;DHT22;6119;52.372;8.990;2023-04-09T13:42:32;14.90;99.90
12111;DHT22;6119;52.372;8.990;2023-04-09T13:45:18;14.70;99.90
12111;DHT22;6119;52.372;8.990;2023-04-09T13:48:09;14.80;99.90
12111;DHT22;6119;52.372;8.990;2023-04-09T13:50:59;14.90;99.90
12111;DHT22;6119;52.372;8.990;2023-04-09T13:53:46;14.80;99.90
12111;DHT22;6119;52.372;8.990;2023-04-09T13:56:32;14.70;99.90
12111;DHT22;6119;52.372;8.990;2023-04-09T13:59:18;14.70;99.90
12111;DHT22;6119;52.372;8.990;2023-04-09T14:02:05;14.70;99.90
12111;DHT22;6119;52.372;8.990;2023-04-09T14:04:53;14.60;99.90
12111;DHT22;6119;52.372;8.990;2023-04-09T14:07:41;14.50;99.90
12111;DHT22;6119;52.372;8.990;2023-04-09T14:10:27;14.50;99.90
12111;DHT22;6119;52.372;8.990;2023-04-09T14:13:15;14.40;99.90
12111;DHT22;6119;52.372;8.990;2023-04-09T14:16:01;14.50;99.90
12111;DHT22;6119;52.372;8.990;2023-04-09T14:18:47;14.50;99.90
12111;DHT22;6119;52.372;8.990;2023-04-09T14:21:36;14.50;99.90
12111;DHT22;6119;52.372;8.990;2023-04-09T14:24:22;14.50;99.90
12111;DHT22;6119;52.372;8.990;2023-04-09T14:27:09;14.50;99.90
12111;DHT22;6119;52.372;8.990;2023-04-09T14:29:56;14.60;99.90
12111;DHT22;6119;52.372;8.990;2023-04-09T14:32:42;14.60;99.90
12111;DHT22;6119;52.372;8.990;2023-04-09T14:35:29;14.40;99.90
12111;DHT22;6119;52.372;8.990;2023-04-09T14:38:17;14.50;99.90
12111;DHT22;6119;52.372;8.990;2023-04-09T14:41:04;14.60;99.90
12111;DHT22;6119;52.372;8.990;2023-04-09T14:43:51;14.50;99.90
12111;DHT22;6119;52.372;8.990;2023-04-09T14:46:37;14.50;99.90
12111;DHT22;6119;52.372;8.990;2023-04-09T14:49:24;14.50;99.90
12111;DHT22;6119;52.372;8.990;2023-04-09T14:52:11;14.60;99.90
12111;DHT22;6119;52.372;8.990;2023-04-09T14:54:58;14.60;99.90
12111;DHT22;6119;52.372;8.990;2023-04-09T14:57:45;14.60;99.90
12111;DHT22;6119;52.372;8.990;2023-04-09T15:00:32;14.50;99.90
12111;DHT22;6119;52.372;8.990;2023-04-09T15:03:18;14.70;99.90
12111;DHT22;6119;52.372;8.990;2023-04-09T15:06:06;14.60;99.90
12111;DHT22;6119;52.372;8.990;2023-04-09T15:08:53;14.70;99.90
12111;DHT22;6119;52.372;8.990;2023-04-09T15:11:41;14.60;99.90
12111;DHT22;6119;52.372;8.990;2023-04-09T15:14:29;14.70;99.90
12111;DHT22;6119;52.372;8.990;2023-04-09T15:17:15;14.80;99.90
12111;DHT22;6119;52.372;8.990;2023-04-09T15:20:02;14.70;99.90
12111;DHT22;6119;52.372;8.990;2023-04-09T15:22:48;14.80;99.90
12111;DHT22;6119;52.372;8.990;2023-04-09T15:25:35;14.80;99.90
12111;DHT22;6119;52.372;8.990;2023-04-09T15:28:23;14.90;99.90
12111;DHT22;6119;52.372;8.990;2023-04-09T15:31:09;15.10;99.90
12111;DHT22;6119;52.372;8.990;2023-04-09T15:33:56;15.40;99.90
12111;DHT22;6119;52.372;8.990;2023-04-09T15:36:43;15.60;99.90
12111;DHT22;6119;52.372;8.990;2023-04-09T15:39:30;15.70;99.80
12111;DHT22;6119;52.372;8.990;2023-04-09T15:42:17;15.70;99.90
12111;DHT22;6119;52.372;8.990;2023-04-09T15:45:09;15.80;99.80
12111;DHT22;6119;52.372;8.990;2023-04-09T15:47:55;15.80;99.80
12111;DHT22;6119;52.372;8.990;2023-04-09T15:50:42;16.00;99.70
12111;DHT22;6119;52.372;8.990;2023-04-09T15:53:29;15.80;99.10
12111;DHT22;6119;52.372;8.990;2023-04-09T15:56:15;15.80;99.70
12111;DHT22;6119;52.372;8.990;2023-04-09T15:59:02;15.70;99.60
12111;DHT22;6119;52.372;8.990;2023-04-09T16:01:51;15.80;98.60
12111;DHT22;6119;52.372;8.990;2023-04-09T16:04:37;16.00;99.00
12111;DHT22;6119;52.372;8.990;2023-04-09T16:07:24;16.30;99.70
12111;DHT22;6119;52.372;8.990;2023-04-09T16:10:11;16.30;99.40
12111;DHT22;6119;52.372;8.990;2023-04-09T16:12:58;15.90;98.80
12111;DHT22;6119;52.372;8.990;2023-04-09T16:15:45;15.50;98.80
12111;DHT22;6119;52.372;8.990;2023-04-09T16:18:34;15.50;99.80
12111;DHT22;6119;52.372;8.990;2023-04-09T16:21:21;15.50;99.50
12111;DHT22;6119;52.372;8.990;2023-04-09T16:24:08;15.40;99.00
12111;DHT22;6119;52.372;8.990;2023-04-09T16:26:55;15.30;99.80
12111;DHT22;6119;52.372;8.990;2023-04-09T16:29:42;15.10;99.90
12111;DHT22;6119;52.372;8.990;2023-04-09T16:32:28;15.10;99.90
12111;DHT22;6119;52.372;8.990;2023-04-09T16:35:17;15.00;99.60
12111;DHT22;6119;52.372;8.990;2023-04-09T16:38:05;15.00;99.90
12111;DHT22;6119;52.372;8.990;2023-04-09T16:40:51;15.00;99.30
12111;DHT22;6119;52.372;8.990;2023-04-09T16:43:38;15.00;99.90
12111;DHT22;6119;52.372;8.990;2023-04-09T16:46:24;14.90;99.50
12111;DHT22;6119;52.372;8.990;2023-04-09T16:49:11;14.90;99.90
12111;DHT22;6119;52.372;8.990;2023-04-09T16:51:59;14.80;99.90
12111;DHT22;6119;52.372;8.990;2023-04-09T16:54:46;14.70;99.90
12111;DHT22;6119;52.372;8.990;2023-04-09T16:57:32;14.70;99.90
12111;DHT22;6119;52.372;8.990;2023-04-09T17:00:19;14.40;99.90
12111;DHT22;6119;52.372;8.990;2023-04-09T17:03:06;14.20;99.90
12111;DHT22;6119;52.372;8.990;2023-04-09T17:05:52;14.30;99.90
12111;DHT22;6119;52.372;8.990;2023-04-09T17:08:40;14.20;99.90
12111;DHT22;6119;52.372;8.990;2023-04-09T17:11:27;14.20;99.90
12111;DHT22;6119;52.372;8.990;2023-04-09T17:14:14;14.10;99.90
12111;DHT22;6119;52.372;8.990;2023-04-09T17:17:00;13.80;99.90
12111;DHT22;6119;52.372;8.990;2023-04-09T17:19:47;14.00;99.90
12111;DHT22;6119;52.372;8.990;2023-04-09T17:22:34;13.90;99.90
12111;DHT22;6119;52.372;8.990;2023-04-09T17:25:21;13.80;99.90
12111;DHT22;6119;52.372;8.990;2023-04-09T17:28:08;13.80;99.90
12111;DHT22;6119;52.372;8.990;2023-04-09T17:30:55;13.70;99.90
12111;DHT22;6119;52.372;8.990;2023-04-09T17:33:43;13.60;99.90
12111;DHT22;6119;52.372;8.990;2023-04-09T17:36:32;13.60;99.90
12111;DHT22;6119;52.372;8.990;2023-04-09T17:39:18;13.60;99.90
12111;DHT22;6119;52.372;8.990;2023-04-09T17:42:06;13.50;99.90
12111;DHT22;6119;52.372;8.990;2023-04-09T17:44:53;13.50;99.90
12111;DHT22;6119;52.372;8.990;2023-04-09T17:47:40;13.40;99.90
12111;DHT22;6119;52.372;8.990;2023-04-09T17:50:27;13.30;99.90
12111;DHT22;6119;52.372;8.990;2023-04-09T17:53:13;13.30;99.90
12111;DHT22;6119;52.372;8.990;2023-04-09T17:56:00;13.20;99.90
12111;DHT22;6119;52.372;8.990;2023-04-09T17:58:49;13.10;99.90
12111;DHT22;6119;52.372;8.990;2023-04-09T18:01:36;13.10;99.90
12111;DHT22;6119;52.372;8.990;2023-04-09T18:04:23;13.00;99.90
12111;DHT22;6119;52.372;8.990;2023-04-09T18:07:10;12.90;99.90